Presque Isle, MI (49777)

8:35 PM EST on February 09, 2016 (GMT -0500)
Lotus Lake | | Change Station
CLOSE
Current Station
Personal Weather Station
Location: Presque Isle, MI
Elevation: 617 ft
Nearby Weather Stations
Active Advisory: Winter Weather Advisory Active Notice: Local Storm Report

Elev 617 ft 45.30 °N, 83.48 °W | Updated 10 minutes ago

Snow
Snow
24.1 °F
Feels Like 18 °F
N
5.3
Wind Variable Wind from NNE

Today
High -- | Low -- °F
--% Chance of Precip.
Yesterday
High -- | Low -- °F
Precip. -- in
Pressure 29.66 in
Visibility 2.0 miles
Clouds Mostly Cloudy 1200 ft
Overcast 1900 ft
Windchill 18 °F
Dew Point 24 °F
Humidity 99%
Rainfall 0.00 in
Snow Depth Not available.
7:44 AM 5:52 PM
Waxing Crescent, 3% visible
METAR KPZQ 100115Z AUTO 30009G14KT 2SM -SN BKN012 OVC019 M05/M07 A2966 RMK AO2 T10511070
Pressure 29.66 in
Visibility 2.0 miles
Clouds Mostly Cloudy 1200 ft
Overcast 1900 ft
Windchill 18 °F
Dew Point 24 °F
Humidity 99%
Rainfall 0.00 in
Snow Depth Not available.
7:44 AM 5:52 PM
Waxing Crescent, 3% visible
METAR KPZQ 100115Z AUTO 30009G14KT 2SM -SN BKN012 OVC019 M05/M07 A2966 RMK AO2 T10511070

10-Day Weather Forecast

Almanac

Astronomy

Feb. 09, 2016 Rise Set
Actual Time
Civil Twilight
Nautical Twilight
Astronomical Twilight
Moon
Length of Visible Light
Length of Day
Tomorrow will be .
, % of the Moon is Illuminated

Today's Extremes

State Highs State Lows

Community

WunderPhotos

Upload Photos

1,891,760 photos uploaded!

WunderBlog® & News

Nearby

Air Quality

  Air Quality AQ Index Pollutant
Not available.

Snow Depth

Station Depth Elevation

Earthquake Activity

City Distance Mag. Time & Date
Minimum magnitude displayed is 2.5.

Coastal Water Temperatures

Place Temperature

Stations

Nearby Weather Stations

Station Location Temp. Windchill Dew Point Humidity Wind Precip. Elev Updated Type
                   

Watches & Warnings

Winter Weather Advisory
Issued: 3:40 PM EST Feb. 9, 2016 – National Weather Service

... Winter Weather Advisory now in effect until midnight EST
tonight...

* occasional snow will gradually diminish across the advisory area
through this evening.

* Additional snowfall accumulations of 1 to 2 inches will be
possible before the snow ends.

* Snow ratios will average 20:1... resulting in a dry snow which
will more likely to blow around.

* Look for reduced visibilities at times with areas of blowing
and drifting snow.

* Plan on areas of hazardous driving conditions.

Precautionary/preparedness actions...

A Winter Weather Advisory for snow means periods of snow will
cause travel difficulties. Be prepared for snow covered roads and
limited visibilities... and use caution while driving. For the
latest Road conditions... go to the mdot website at Michigan.Gov.